Algowood — VCTD — position and weather

sailwx.info

Track history (hours):
 
Tides and Currents Weather Stations Pressure Air Temp Water Temp Dewpoint Dewpoint Depression Visibility Wind Speed Wind Dir Waves Ship Positions

Algowood

Last reported at 2016-Aug-24 21:24 UTC. Time now 2016-Aug-30 20:49 UTC.
Position N 43°12' W 079°13'.

Length 223 m; draft 5.5 m.

Type: Cargo ship. MMSI: 316001802.

Date/timePositionNaut miles runAvg speedWind from/ knotsBaromVisibWave heightAir tempDewpointWater temp
2016-Aug-24 21:24N 43°12' W 079°13'1 1.2
2016-Aug-24 20:33N 43°13' W 079°13'0 0.2
2016-Aug-24 19:34N 43°13' W 079°13'0 0.0
2016-Aug-24 18:34N 43°14' W 079°13'0 0.2
2016-Aug-24 17:33N 43°14' W 079°13'0 0.0
2016-Aug-23 21:33N 43°14' W 079°13'1 1.0
2016-Aug-23 20:33N 43°13' W 079°13'  
2016-Aug-18 13:29N 46°18' W 083°46'0 0.0
2016-Aug-18 12:33N 46°18' W 083°46'1 0.4
2016-Aug-18 10:34N 46°17' W 083°46'4 3.9
2016-Aug-18 09:33N 46°13' W 083°45'1010.4
2016-Aug-18 08:33N 46°07' W 083°33'11 8.3
2016-Aug-18 07:12N 45°55' W 083°30'26 8.4
2016-Aug-18 04:05N 45°50' W 084°07'1010.6
2016-Aug-18 03:08N 45°51' W 084°21'711.1
2016-Aug-18 02:32N 45°51' W 084°31'1010.1
2016-Aug-18 01:34N 45°49' W 084°45'1111.5
2016-Aug-18 00:33N 45°50' W 085°01'9 8.9
2016-Aug-17 23:33N 45°44' W 085°11'1111.4
2016-Aug-17 22:33N 45°35' W 085°20'1211.3
2016-Aug-17 21:32N 45°26' W 085°30'1111.3
2016-Aug-17 20:33N 45°17' W 085°40'1111.1
2016-Aug-17 19:33N 45°08' W 085°49'  
2016-Aug-15 03:33N 44°59' W 086°23'1110.6
2016-Aug-15 02:33N 45°09' W 086°19'1110.8
2016-Aug-15 01:33N 45°19' W 086°15'1110.6
2016-Aug-15 00:34N 45°30' W 086°11'1210.3
2016-Aug-14 23:25N 45°41' W 086°06'910.0
2016-Aug-14 22:34N 45°45' W 085°56'1010.1
2016-Aug-14 21:34N 45°50' W 085°43'  
Track history (hours):
 
Tides and Currents Weather Stations Pressure Air Temp Water Temp Dewpoint Dewpoint Depression Visibility Wind Speed Wind Dir Waves Ship Positions

Algowood

Last reported at 2016-Aug-24 21:24 UTC. Time now 2016-Aug-30 20:49 UTC.
Position N 43°12' W 079°13'.

Length 223 m; draft 5.5 m.

Type: Cargo ship. MMSI: 316001802.

Date/timePositionNaut miles runAvg speedWind from/ knotsBaromVisibWave heightAir tempDewpointWater temp
2016-Aug-24 21:24N 43°12' W 079°13'1 1.2
2016-Aug-24 20:33N 43°13' W 079°13'0 0.2
2016-Aug-24 19:34N 43°13' W 079°13'0 0.0
2016-Aug-24 18:34N 43°14' W 079°13'0 0.2
2016-Aug-24 17:33N 43°14' W 079°13'0 0.0
2016-Aug-23 21:33N 43°14' W 079°13'1 1.0
2016-Aug-23 20:33N 43°13' W 079°13'  
2016-Aug-18 13:29N 46°18' W 083°46'0 0.0
2016-Aug-18 12:33N 46°18' W 083°46'1 0.4
2016-Aug-18 10:34N 46°17' W 083°46'4 3.9
2016-Aug-18 09:33N 46°13' W 083°45'1010.4
2016-Aug-18 08:33N 46°07' W 083°33'11 8.3
2016-Aug-18 07:12N 45°55' W 083°30'26 8.4
2016-Aug-18 04:05N 45°50' W 084°07'1010.6
2016-Aug-18 03:08N 45°51' W 084°21'711.1
2016-Aug-18 02:32N 45°51' W 084°31'1010.1
2016-Aug-18 01:34N 45°49' W 084°45'1111.5
2016-Aug-18 00:33N 45°50' W 085°01'9 8.9
2016-Aug-17 23:33N 45°44' W 085°11'1111.4
2016-Aug-17 22:33N 45°35' W 085°20'1211.3
2016-Aug-17 21:32N 45°26' W 085°30'1111.3
2016-Aug-17 20:33N 45°17' W 085°40'1111.1
2016-Aug-17 19:33N 45°08' W 085°49'  
2016-Aug-15 03:33N 44°59' W 086°23'1110.6
2016-Aug-15 02:33N 45°09' W 086°19'1110.8
2016-Aug-15 01:33N 45°19' W 086°15'1110.6
2016-Aug-15 00:34N 45°30' W 086°11'1210.3
2016-Aug-14 23:25N 45°41' W 086°06'910.0
2016-Aug-14 22:34N 45°45' W 085°56'1010.1
2016-Aug-14 21:34N 45°50' W 085°43'  

Dump ship's entire track history